sensor_id;sensor_type;location;lat;lon;timestamp;temperature;humidity
2723;DHT22;1369;53.216;10.396;2023-04-03T00:00:54;1.30;99.90
2723;DHT22;1369;53.216;10.396;2023-04-03T00:03:19;1.30;99.90
2723;DHT22;1369;53.216;10.396;2023-04-03T00:05:46;1.30;99.90
2723;DHT22;1369;53.216;10.396;2023-04-03T00:08:12;1.20;99.90
2723;DHT22;1369;53.216;10.396;2023-04-03T00:10:37;1.10;99.90
2723;DHT22;1369;53.216;10.396;2023-04-03T00:13:04;1.00;99.90
2723;DHT22;1369;53.216;10.396;2023-04-03T00:15:30;1.00;99.90
2723;DHT22;1369;53.216;10.396;2023-04-03T00:17:56;0.90;99.90
2723;DHT22;1369;53.216;10.396;2023-04-03T00:20:22;1.00;99.90
2723;DHT22;1369;53.216;10.396;2023-04-03T00:22:48;1.00;99.90
2723;DHT22;1369;53.216;10.396;2023-04-03T00:25:14;1.10;99.90
2723;DHT22;1369;53.216;10.396;2023-04-03T00:27:39;1.10;99.90
2723;DHT22;1369;53.216;10.396;2023-04-03T00:30:07;1.10;99.90
2723;DHT22;1369;53.216;10.396;2023-04-03T00:32:33;1.10;99.90
2723;DHT22;1369;53.216;10.396;2023-04-03T00:34:58;1.00;99.90
2723;DHT22;1369;53.216;10.396;2023-04-03T00:37:24;1.00;99.90
2723;DHT22;1369;53.216;10.396;2023-04-03T00:39:50;1.00;99.90
2723;DHT22;1369;53.216;10.396;2023-04-03T00:42:15;0.80;99.90
2723;DHT22;1369;53.216;10.396;2023-04-03T00:47:09;0.80;99.90
2723;DHT22;1369;53.216;10.396;2023-04-03T00:49:37;0.80;99.90
2723;DHT22;1369;53.216;10.396;2023-04-03T00:52:05;0.80;99.90
2723;DHT22;1369;53.216;10.396;2023-04-03T00:54:32;0.70;99.90
2723;DHT22;1369;53.216;10.396;2023-04-03T00:56:58;0.70;99.90
2723;DHT22;1369;53.216;10.396;2023-04-03T00:59:29;0.70;99.90
2723;DHT22;1369;53.216;10.396;2023-04-03T01:01:56;0.70;99.90
2723;DHT22;1369;53.216;10.396;2023-04-03T01:04:36;0.70;99.90
2723;DHT22;1369;53.216;10.396;2023-04-03T01:07:08;0.70;99.90
2723;DHT22;1369;53.216;10.396;2023-04-03T01:09:34;0.80;99.90
2723;DHT22;1369;53.216;10.396;2023-04-03T01:12:33;0.80;99.90
2723;DHT22;1369;53.216;10.396;2023-04-03T01:15:03;0.60;99.90
2723;DHT22;1369;53.216;10.396;2023-04-03T01:17:53;0.60;99.90
2723;DHT22;1369;53.216;10.396;2023-04-03T01:28:06;0.40;99.90
2723;DHT22;1369;53.216;10.396;2023-04-03T01:30:35;0.50;99.90
2723;DHT22;1369;53.216;10.396;2023-04-03T01:33:02;0.50;99.90
2723;DHT22;1369;53.216;10.396;2023-04-03T01:35:28;0.50;99.90
2723;DHT22;1369;53.216;10.396;2023-04-03T01:37:54;0.50;99.90
2723;DHT22;1369;53.216;10.396;2023-04-03T01:40:19;0.50;99.90
2723;DHT22;1369;53.216;10.396;2023-04-03T01:42:45;0.50;99.90
2723;DHT22;1369;53.216;10.396;2023-04-03T01:45:11;0.40;99.90
2723;DHT22;1369;53.216;10.396;2023-04-03T01:47:36;0.40;99.90
2723;DHT22;1369;53.216;10.396;2023-04-03T01:50:02;0.30;99.90
2723;DHT22;1369;53.216;10.396;2023-04-03T01:52:28;0.40;99.90
2723;DHT22;1369;53.216;10.396;2023-04-03T01:54:53;0.40;99.90
2723;DHT22;1369;53.216;10.396;2023-04-03T01:57:19;0.40;99.90
2723;DHT22;1369;53.216;10.396;2023-04-03T01:59:45;0.40;99.90
2723;DHT22;1369;53.216;10.396;2023-04-03T02:02:10;0.30;99.90
2723;DHT22;1369;53.216;10.396;2023-04-03T02:04:38;0.30;99.90
2723;DHT22;1369;53.216;10.396;2023-04-03T02:07:03;0.20;99.90
2723;DHT22;1369;53.216;10.396;2023-04-03T02:09:29;0.30;99.90
2723;DHT22;1369;53.216;10.396;2023-04-03T02:11:54;0.30;99.90
2723;DHT22;1369;53.216;10.396;2023-04-03T02:14:20;0.30;99.90
2723;DHT22;1369;53.216;10.396;2023-04-03T02:16:47;0.30;99.90
2723;DHT22;1369;53.216;10.396;2023-04-03T02:19:12;0.30;99.90
2723;DHT22;1369;53.216;10.396;2023-04-03T02:21:38;0.30;99.90
2723;DHT22;1369;53.216;10.396;2023-04-03T02:24:03;0.30;99.90
2723;DHT22;1369;53.216;10.396;2023-04-03T02:26:29;0.30;99.90
2723;DHT22;1369;53.216;10.396;2023-04-03T02:28:54;0.30;99.90
2723;DHT22;1369;53.216;10.396;2023-04-03T02:31:20;0.30;99.90
2723;DHT22;1369;53.216;10.396;2023-04-03T02:33:46;0.20;99.90
2723;DHT22;1369;53.216;10.396;2023-04-03T02:36:11;0.20;99.90
2723;DHT22;1369;53.216;10.396;2023-04-03T02:38:37;0.20;99.90
2723;DHT22;1369;53.216;10.396;2023-04-03T02:41:05;0.10;99.90
2723;DHT22;1369;53.216;10.396;2023-04-03T02:43:31;0.10;99.90
2723;DHT22;1369;53.216;10.396;2023-04-03T02:45:56;0.00;99.90
2723;DHT22;1369;53.216;10.396;2023-04-03T02:48:22;0.00;99.90
2723;DHT22;1369;53.216;10.396;2023-04-03T02:50:48;0.00;99.90
2723;DHT22;1369;53.216;10.396;2023-04-03T02:53:14;0.00;99.90
2723;DHT22;1369;53.216;10.396;2023-04-03T02:55:41;-0.10;99.90
2723;DHT22;1369;53.216;10.396;2023-04-03T02:58:06;0.00;99.90
2723;DHT22;1369;53.216;10.396;2023-04-03T03:00:32;0.00;99.90
2723;DHT22;1369;53.216;10.396;2023-04-03T03:02:58;0.00;99.90
2723;DHT22;1369;53.216;10.396;2023-04-03T03:05:23;-0.10;99.90
2723;DHT22;1369;53.216;10.396;2023-04-03T03:07:49;-0.10;99.90
2723;DHT22;1369;53.216;10.396;2023-04-03T03:10:15;-0.20;99.90
2723;DHT22;1369;53.216;10.396;2023-04-03T03:12:40;-0.20;99.90
2723;DHT22;1369;53.216;10.396;2023-04-03T03:15:06;-0.20;99.90
2723;DHT22;1369;53.216;10.396;2023-04-03T03:17:32;-0.30;99.90
2723;DHT22;1369;53.216;10.396;2023-04-03T03:19:58;-0.30;99.90
2723;DHT22;1369;53.216;10.396;2023-04-03T03:22:23;-0.30;99.90
2723;DHT22;1369;53.216;10.396;2023-04-03T03:24:49;-0.30;99.90
2723;DHT22;1369;53.216;10.396;2023-04-03T03:27:15;-0.30;99.90
2723;DHT22;1369;53.216;10.396;2023-04-03T03:29:41;-0.30;99.90
2723;DHT22;1369;53.216;10.396;2023-04-03T03:32:07;-0.30;99.90
2723;DHT22;1369;53.216;10.396;2023-04-03T03:34:32;-0.30;99.90
2723;DHT22;1369;53.216;10.396;2023-04-03T03:36:58;-0.20;99.90
2723;DHT22;1369;53.216;10.396;2023-04-03T03:39:23;-0.30;99.90
2723;DHT22;1369;53.216;10.396;2023-04-03T03:41:49;-0.40;99.90
2723;DHT22;1369;53.216;10.396;2023-04-03T03:44:15;-0.40;99.90
2723;DHT22;1369;53.216;10.396;2023-04-03T03:46:40;-0.40;99.90
2723;DHT22;1369;53.216;10.396;2023-04-03T03:49:06;-0.40;99.90
2723;DHT22;1369;53.216;10.396;2023-04-03T03:51:31;-0.50;99.90
2723;DHT22;1369;53.216;10.396;2023-04-03T03:53:57;-0.50;99.90
2723;DHT22;1369;53.216;10.396;2023-04-03T03:56:22;-0.50;99.90
2723;DHT22;1369;53.216;10.396;2023-04-03T03:58:48;-0.50;99.90
2723;DHT22;1369;53.216;10.396;2023-04-03T04:01:15;-0.60;99.90
2723;DHT22;1369;53.216;10.396;2023-04-03T04:03:42;-0.50;99.90
2723;DHT22;1369;53.216;10.396;2023-04-03T04:06:07;-0.60;99.90
2723;DHT22;1369;53.216;10.396;2023-04-03T04:08:33;-0.60;99.90
2723;DHT22;1369;53.216;10.396;2023-04-03T04:10:59;-0.50;99.90
2723;DHT22;1369;53.216;10.396;2023-04-03T04:13:24;-0.50;99.90
2723;DHT22;1369;53.216;10.396;2023-04-03T04:15:50;-0.50;99.90
2723;DHT22;1369;53.216;10.396;2023-04-03T04:18:15;-0.50;99.90
2723;DHT22;1369;53.216;10.396;2023-04-03T04:20:41;-0.50;99.90
2723;DHT22;1369;53.216;10.396;2023-04-03T04:23:07;-0.60;99.90
2723;DHT22;1369;53.216;10.396;2023-04-03T04:25:32;-0.60;99.90
2723;DHT22;1369;53.216;10.396;2023-04-03T04:27:58;-0.50;99.90
2723;DHT22;1369;53.216;10.396;2023-04-03T04:30:23;-0.60;99.90
2723;DHT22;1369;53.216;10.396;2023-04-03T04:32:49;-0.60;99.90
2723;DHT22;1369;53.216;10.396;2023-04-03T04:35:15;-0.50;99.90
2723;DHT22;1369;53.216;10.396;2023-04-03T04:37:40;-0.50;99.90
2723;DHT22;1369;53.216;10.396;2023-04-03T04:40:07;-0.60;99.90
2723;DHT22;1369;53.216;10.396;2023-04-03T04:42:32;-0.60;99.90
2723;DHT22;1369;53.216;10.396;2023-04-03T04:44:58;-0.60;99.90
2723;DHT22;1369;53.216;10.396;2023-04-03T04:47:23;-0.70;99.90
2723;DHT22;1369;53.216;10.396;2023-04-03T04:49:49;-0.70;99.90
2723;DHT22;1369;53.216;10.396;2023-04-03T04:52:14;-0.70;99.90
2723;DHT22;1369;53.216;10.396;2023-04-03T04:54:40;-0.80;99.90
2723;DHT22;1369;53.216;10.396;2023-04-03T04:57:05;-0.80;99.90
2723;DHT22;1369;53.216;10.396;2023-04-03T04:59:31;-0.80;99.90
2723;DHT22;1369;53.216;10.396;2023-04-03T05:01:56;-0.80;99.90
2723;DHT22;1369;53.216;10.396;2023-04-03T05:04:22;-0.70;99.90
2723;DHT22;1369;53.216;10.396;2023-04-03T05:06:48;-0.60;99.90
2723;DHT22;1369;53.216;10.396;2023-04-03T05:09:13;-0.70;99.90
2723;DHT22;1369;53.216;10.396;2023-04-03T05:11:39;-0.70;99.90
2723;DHT22;1369;53.216;10.396;2023-04-03T05:14:04;-0.70;99.90
2723;DHT22;1369;53.216;10.396;2023-04-03T05:16:33;-0.80;99.90
2723;DHT22;1369;53.216;10.396;2023-04-03T05:18:59;-0.80;99.90
2723;DHT22;1369;53.216;10.396;2023-04-03T05:21:24;-0.80;99.90
2723;DHT22;1369;53.216;10.396;2023-04-03T05:23:51;-0.70;99.90
2723;DHT22;1369;53.216;10.396;2023-04-03T05:26:17;-0.70;99.90
2723;DHT22;1369;53.216;10.396;2023-04-03T05:28:43;-0.60;99.90
2723;DHT22;1369;53.216;10.396;2023-04-03T05:31:08;-0.60;99.90
2723;DHT22;1369;53.216;10.396;2023-04-03T05:33:34;-0.60;99.90
2723;DHT22;1369;53.216;10.396;2023-04-03T05:36:04;-0.50;99.90
2723;DHT22;1369;53.216;10.396;2023-04-03T05:38:30;-0.50;99.90
2723;DHT22;1369;53.216;10.396;2023-04-03T05:40:55;-0.40;99.90
2723;DHT22;1369;53.216;10.396;2023-04-03T05:43:21;-0.40;99.90
2723;DHT22;1369;53.216;10.396;2023-04-03T05:45:47;-0.40;99.90
2723;DHT22;1369;53.216;10.396;2023-04-03T05:48:13;-0.40;99.90
2723;DHT22;1369;53.216;10.396;2023-04-03T05:50:38;-0.40;99.90
2723;DHT22;1369;53.216;10.396;2023-04-03T05:53:07;-0.30;99.90
2723;DHT22;1369;53.216;10.396;2023-04-03T05:55:37;-0.40;99.90
2723;DHT22;1369;53.216;10.396;2023-04-03T05:58:03;-0.40;99.90
2723;DHT22;1369;53.216;10.396;2023-04-03T06:00:28;-0.30;99.90
2723;DHT22;1369;53.216;10.396;2023-04-03T06:02:54;-0.30;99.90
2723;DHT22;1369;53.216;10.396;2023-04-03T06:05:19;-0.20;99.90
2723;DHT22;1369;53.216;10.396;2023-04-03T06:07:45;-0.10;99.90
2723;DHT22;1369;53.216;10.396;2023-04-03T06:10:11;0.00;99.90
2723;DHT22;1369;53.216;10.396;2023-04-03T06:12:37;0.20;99.90
2723;DHT22;1369;53.216;10.396;2023-04-03T06:15:03;0.30;99.90
2723;DHT22;1369;53.216;10.396;2023-04-03T06:17:29;0.30;99.90
2723;DHT22;1369;53.216;10.396;2023-04-03T06:19:55;0.50;99.90
2723;DHT22;1369;53.216;10.396;2023-04-03T06:22:21;0.80;99.90
2723;DHT22;1369;53.216;10.396;2023-04-03T06:24:46;1.00;99.90
2723;DHT22;1369;53.216;10.396;2023-04-03T06:27:12;1.40;99.90
2723;DHT22;1369;53.216;10.396;2023-04-03T06:29:37;1.60;99.90
2723;DHT22;1369;53.216;10.396;2023-04-03T06:32:03;1.50;99.90
2723;DHT22;1369;53.216;10.396;2023-04-03T06:34:29;1.50;99.90
2723;DHT22;1369;53.216;10.396;2023-04-03T06:36:54;1.40;99.90
2723;DHT22;1369;53.216;10.396;2023-04-03T06:39:21;1.60;99.90
2723;DHT22;1369;53.216;10.396;2023-04-03T06:41:48;1.70;99.90
2723;DHT22;1369;53.216;10.396;2023-04-03T06:44:13;1.80;99.90
2723;DHT22;1369;53.216;10.396;2023-04-03T06:46:41;1.90;99.90
2723;DHT22;1369;53.216;10.396;2023-04-03T06:49:07;1.90;99.90
2723;DHT22;1369;53.216;10.396;2023-04-03T06:51:33;2.00;99.90
2723;DHT22;1369;53.216;10.396;2023-04-03T06:54:00;2.00;99.90
2723;DHT22;1369;53.216;10.396;2023-04-03T06:56:27;2.00;99.90
2723;DHT22;1369;53.216;10.396;2023-04-03T06:58:53;2.00;99.90
2723;DHT22;1369;53.216;10.396;2023-04-03T07:01:21;2.00;99.90
2723;DHT22;1369;53.216;10.396;2023-04-03T07:03:47;2.10;99.90
2723;DHT22;1369;53.216;10.396;2023-04-03T07:06:17;2.30;99.90
2723;DHT22;1369;53.216;10.396;2023-04-03T07:08:44;2.50;99.90
2723;DHT22;1369;53.216;10.396;2023-04-03T07:11:11;3.00;99.90
2723;DHT22;1369;53.216;10.396;2023-04-03T07:13:37;3.40;99.90
2723;DHT22;1369;53.216;10.396;2023-04-03T07:16:03;3.60;99.90
2723;DHT22;1369;53.216;10.396;2023-04-03T07:18:30;3.90;99.90
2723;DHT22;1369;53.216;10.396;2023-04-03T07:20:56;4.40;99.90
2723;DHT22;1369;53.216;10.396;2023-04-03T07:23:23;5.00;99.90
2723;DHT22;1369;53.216;10.396;2023-04-03T07:25:50;6.20;99.90
2723;DHT22;1369;53.216;10.396;2023-04-03T07:28:17;7.70;99.90
2723;DHT22;1369;53.216;10.396;2023-04-03T07:33:10;9.40;99.90
2723;DHT22;1369;53.216;10.396;2023-04-03T07:35:35;10.10;99.90
2723;DHT22;1369;53.216;10.396;2023-04-03T07:38:01;10.20;99.90
2723;DHT22;1369;53.216;10.396;2023-04-03T07:40:27;10.20;99.90
2723;DHT22;1369;53.216;10.396;2023-04-03T07:42:52;10.20;99.90
2723;DHT22;1369;53.216;10.396;2023-04-03T07:45:18;11.10;99.90
2723;DHT22;1369;53.216;10.396;2023-04-03T07:47:44;11.50;99.90
2723;DHT22;1369;53.216;10.396;2023-04-03T07:50:10;11.40;99.90
2723;DHT22;1369;53.216;10.396;2023-04-03T07:52:36;11.90;99.90
2723;DHT22;1369;53.216;10.396;2023-04-03T07:55:01;12.40;99.90
2723;DHT22;1369;53.216;10.396;2023-04-03T07:57:27;13.10;99.90
2723;DHT22;1369;53.216;10.396;2023-04-03T07:59:52;13.80;99.90
2723;DHT22;1369;53.216;10.396;2023-04-03T08:02:18;14.40;99.90
2723;DHT22;1369;53.216;10.396;2023-04-03T08:04:44;14.10;99.90
2723;DHT22;1369;53.216;10.396;2023-04-03T08:07:09;14.90;99.90
2723;DHT22;1369;53.216;10.396;2023-04-03T08:09:35;15.20;99.90
2723;DHT22;1369;53.216;10.396;2023-04-03T08:12:00;15.20;99.90
2723;DHT22;1369;53.216;10.396;2023-04-03T08:14:26;15.50;99.90
2723;DHT22;1369;53.216;10.396;2023-04-03T08:16:51;16.30;99.20
2723;DHT22;1369;53.216;10.396;2023-04-03T08:19:17;15.90;96.10
2723;DHT22;1369;53.216;10.396;2023-04-03T08:21:44;16.50;96.70
2723;DHT22;1369;53.216;10.396;2023-04-03T08:24:10;17.30;96.10
2723;DHT22;1369;53.216;10.396;2023-04-03T08:26:36;17.70;95.90
2723;DHT22;1369;53.216;10.396;2023-04-03T08:29:02;17.80;93.50
2723;DHT22;1369;53.216;10.396;2023-04-03T08:31:27;16.50;91.80
2723;DHT22;1369;53.216;10.396;2023-04-03T08:33:53;17.20;92.50
2723;DHT22;1369;53.216;10.396;2023-04-03T08:36:27;17.70;92.00
2723;DHT22;1369;53.216;10.396;2023-04-03T08:38:54;17.40;90.30
2723;DHT22;1369;53.216;10.396;2023-04-03T08:41:33;16.20;84.00
2723;DHT22;1369;53.216;10.396;2023-04-03T08:49:40;14.40;80.50
2723;DHT22;1369;53.216;10.396;2023-04-03T08:52:15;14.80;87.00
2723;DHT22;1369;53.216;10.396;2023-04-03T08:54:58;15.30;86.40
2723;DHT22;1369;53.216;10.396;2023-04-03T08:57:33;14.20;81.60
2723;DHT22;1369;53.216;10.396;2023-04-03T09:00:20;13.80;85.80
2723;DHT22;1369;53.216;10.396;2023-04-03T09:02:50;13.90;81.20
2723;DHT22;1369;53.216;10.396;2023-04-03T09:05:24;14.50;84.90
2723;DHT22;1369;53.216;10.396;2023-04-03T09:07:59;14.20;79.90
2723;DHT22;1369;53.216;10.396;2023-04-03T09:10:32;13.80;84.40
2723;DHT22;1369;53.216;10.396;2023-04-03T09:15:52;13.70;89.60
2723;DHT22;1369;53.216;10.396;2023-04-03T09:18:21;13.40;84.30
2723;DHT22;1369;53.216;10.396;2023-04-03T09:21:16;13.50;84.10
2723;DHT22;1369;53.216;10.396;2023-04-03T09:23:50;13.70;84.40
2723;DHT22;1369;53.216;10.396;2023-04-03T09:26:20;14.00;89.00
2723;DHT22;1369;53.216;10.396;2023-04-03T09:28:48;13.80;88.00
2723;DHT22;1369;53.216;10.396;2023-04-03T09:31:21;14.30;88.70
2723;DHT22;1369;53.216;10.396;2023-04-03T09:33:53;14.50;90.30
2723;DHT22;1369;53.216;10.396;2023-04-03T09:36:39;14.90;91.70
2723;DHT22;1369;53.216;10.396;2023-04-03T09:39:10;14.20;79.20
2723;DHT22;1369;53.216;10.396;2023-04-03T09:41:36;14.10;86.40
2723;DHT22;1369;53.216;10.396;2023-04-03T09:44:02;13.50;83.20
2723;DHT22;1369;53.216;10.396;2023-04-03T09:46:32;13.70;85.10
2723;DHT22;1369;53.216;10.396;2023-04-03T09:49:03;13.10;79.50
2723;DHT22;1369;53.216;10.396;2023-04-03T09:51:30;12.50;83.40
2723;DHT22;1369;53.216;10.396;2023-04-03T09:53:56;12.90;88.10
2723;DHT22;1369;53.216;10.396;2023-04-03T09:56:25;12.20;77.20
2723;DHT22;1369;53.216;10.396;2023-04-03T10:01:36;11.50;83.20
2723;DHT22;1369;53.216;10.396;2023-04-03T10:04:14;11.20;82.10
2723;DHT22;1369;53.216;10.396;2023-04-03T10:06:45;11.60;89.40
2723;DHT22;1369;53.216;10.396;2023-04-03T10:09:29;12.40;91.50
2723;DHT22;1369;53.216;10.396;2023-04-03T10:12:06;13.00;90.30
2723;DHT22;1369;53.216;10.396;2023-04-03T10:14:37;13.00;86.40
2723;DHT22;1369;53.216;10.396;2023-04-03T10:20:20;12.60;85.50
2723;DHT22;1369;53.216;10.396;2023-04-03T10:29:03;11.90;77.80
2723;DHT22;1369;53.216;10.396;2023-04-03T10:34:23;11.70;87.10
2723;DHT22;1369;53.216;10.396;2023-04-03T10:37:24;12.00;86.70
2723;DHT22;1369;53.216;10.396;2023-04-03T10:48:04;10.90;83.40
2723;DHT22;1369;53.216;10.396;2023-04-03T10:56:30;10.10;84.90
2723;DHT22;1369;53.216;10.396;2023-04-03T11:01:48;10.60;84.80
2723;DHT22;1369;53.216;10.396;2023-04-03T11:04:16;10.10;84.20
2723;DHT22;1369;53.216;10.396;2023-04-03T11:06:44;9.60;80.60
2723;DHT22;1369;53.216;10.396;2023-04-03T11:09:22;9.30;83.40
2723;DHT22;1369;53.216;10.396;2023-04-03T11:11:49;9.10;82.30
2723;DHT22;1369;53.216;10.396;2023-04-03T11:14:34;8.90;82.60
2723;DHT22;1369;53.216;10.396;2023-04-03T11:20:01;8.90;84.30
2723;DHT22;1369;53.216;10.396;2023-04-03T11:22:36;9.50;87.20
2723;DHT22;1369;53.216;10.396;2023-04-03T11:27:45;9.70;84.80
2723;DHT22;1369;53.216;10.396;2023-04-03T11:33:28;10.40;88.30
2723;DHT22;1369;53.216;10.396;2023-04-03T11:36:29;10.70;85.40
2723;DHT22;1369;53.216;10.396;2023-04-03T11:38:58;10.90;86.90
2723;DHT22;1369;53.216;10.396;2023-04-03T11:41:29;10.90;85.80
2723;DHT22;1369;53.216;10.396;2023-04-03T11:44:00;10.20;82.60
2723;DHT22;1369;53.216;10.396;2023-04-03T11:46:52;10.70;90.00
2723;DHT22;1369;53.216;10.396;2023-04-03T11:49:54;11.00;89.50
2723;DHT22;1369;53.216;10.396;2023-04-03T11:52:55;10.90;85.10
2723;DHT22;1369;53.216;10.396;2023-04-03T12:16:29;9.60;82.40
2723;DHT22;1369;53.216;10.396;2023-04-03T12:29:15;9.00;85.40
2723;DHT22;1369;53.216;10.396;2023-04-03T12:32:14;9.20;88.30
2723;DHT22;1369;53.216;10.396;2023-04-03T12:37:51;9.30;90.30
2723;DHT22;1369;53.216;10.396;2023-04-03T12:48:57;10.00;86.00
2723;DHT22;1369;53.216;10.396;2023-04-03T12:51:40;9.90;88.70
2723;DHT22;1369;53.216;10.396;2023-04-03T12:54:18;9.80;88.00
2723;DHT22;1369;53.216;10.396;2023-04-03T12:56:45;9.70;86.50
2723;DHT22;1369;53.216;10.396;2023-04-03T12:59:25;9.60;87.00
2723;DHT22;1369;53.216;10.396;2023-04-03T13:01:56;9.90;89.00
2723;DHT22;1369;53.216;10.396;2023-04-03T13:04:22;10.10;87.80
2723;DHT22;1369;53.216;10.396;2023-04-03T13:06:49;10.40;89.00
2723;DHT22;1369;53.216;10.396;2023-04-03T13:09:22;9.90;83.40
2723;DHT22;1369;53.216;10.396;2023-04-03T13:11:50;9.70;85.10
2723;DHT22;1369;53.216;10.396;2023-04-03T13:14:19;9.80;88.50
2723;DHT22;1369;53.216;10.396;2023-04-03T13:17:00;9.40;85.20
2723;DHT22;1369;53.216;10.396;2023-04-03T13:19:28;9.10;84.40
2723;DHT22;1369;53.216;10.396;2023-04-03T13:22:01;9.00;86.30
2723;DHT22;1369;53.216;10.396;2023-04-03T13:24:29;9.50;87.70
2723;DHT22;1369;53.216;10.396;2023-04-03T13:26:56;9.70;84.50
2723;DHT22;1369;53.216;10.396;2023-04-03T13:29:31;9.70;83.00
2723;DHT22;1369;53.216;10.396;2023-04-03T13:31:58;10.10;86.50
2723;DHT22;1369;53.216;10.396;2023-04-03T13:34:26;10.40;81.70
2723;DHT22;1369;53.216;10.396;2023-04-03T13:39:23;11.10;85.60
2723;DHT22;1369;53.216;10.396;2023-04-03T13:41:51;11.00;83.80
2723;DHT22;1369;53.216;10.396;2023-04-03T13:44:30;10.30;82.60
2723;DHT22;1369;53.216;10.396;2023-04-03T13:46:59;10.30;88.10
2723;DHT22;1369;53.216;10.396;2023-04-03T13:51:56;9.80;84.70
2723;DHT22;1369;53.216;10.396;2023-04-03T13:54:31;9.90;89.20
2723;DHT22;1369;53.216;10.396;2023-04-03T13:56:58;9.70;83.50
2723;DHT22;1369;53.216;10.396;2023-04-03T13:59:28;9.60;84.10
2723;DHT22;1369;53.216;10.396;2023-04-03T14:04:33;9.60;84.60
2723;DHT22;1369;53.216;10.396;2023-04-03T14:07:09;9.90;85.80
2723;DHT22;1369;53.216;10.396;2023-04-03T14:09:34;10.10;86.80
2723;DHT22;1369;53.216;10.396;2023-04-03T14:12:06;9.80;84.30
2723;DHT22;1369;53.216;10.396;2023-04-03T14:14:34;9.70;84.00
2723;DHT22;1369;53.216;10.396;2023-04-03T14:17:18;9.00;83.50
2723;DHT22;1369;53.216;10.396;2023-04-03T14:19:44;9.40;86.80
2723;DHT22;1369;53.216;10.396;2023-04-03T14:22:25;9.90;89.40
2723;DHT22;1369;53.216;10.396;2023-04-03T14:24:51;10.30;86.90
2723;DHT22;1369;53.216;10.396;2023-04-03T14:27:23;10.60;90.40
2723;DHT22;1369;53.216;10.396;2023-04-03T14:29:50;10.60;87.60
2723;DHT22;1369;53.216;10.396;2023-04-03T14:32:18;10.60;84.70
2723;DHT22;1369;53.216;10.396;2023-04-03T14:34:44;10.30;86.50
2723;DHT22;1369;53.216;10.396;2023-04-03T14:37:12;10.20;85.30
2723;DHT22;1369;53.216;10.396;2023-04-03T14:39:39;10.00;81.90
2723;DHT22;1369;53.216;10.396;2023-04-03T14:42:04;9.70;80.30
2723;DHT22;1369;53.216;10.396;2023-04-03T14:44:30;9.20;79.20
2723;DHT22;1369;53.216;10.396;2023-04-03T14:46:56;9.40;84.40
2723;DHT22;1369;53.216;10.396;2023-04-03T14:49:25;9.70;84.20
2723;DHT22;1369;53.216;10.396;2023-04-03T14:51:51;9.30;81.30
2723;DHT22;1369;53.216;10.396;2023-04-03T14:54:21;9.50;86.30
2723;DHT22;1369;53.216;10.396;2023-04-03T14:56:51;9.70;84.10
2723;DHT22;1369;53.216;10.396;2023-04-03T14:59:16;9.80;85.80
2723;DHT22;1369;53.216;10.396;2023-04-03T15:01:45;9.50;80.70
2723;DHT22;1369;53.216;10.396;2023-04-03T15:04:15;9.30;80.20
2723;DHT22;1369;53.216;10.396;2023-04-03T15:06:41;8.80;81.50
2723;DHT22;1369;53.216;10.396;2023-04-03T15:09:24;8.70;83.10
2723;DHT22;1369;53.216;10.396;2023-04-03T15:11:50;9.00;87.20
2723;DHT22;1369;53.216;10.396;2023-04-03T15:14:16;9.20;86.70
2723;DHT22;1369;53.216;10.396;2023-04-03T15:16:42;8.90;82.50
2723;DHT22;1369;53.216;10.396;2023-04-03T15:19:08;8.90;84.80
2723;DHT22;1369;53.216;10.396;2023-04-03T15:21:33;8.70;82.90
2723;DHT22;1369;53.216;10.396;2023-04-03T15:23:59;8.40;83.80
2723;DHT22;1369;53.216;10.396;2023-04-03T15:26:25;8.30;83.00
2723;DHT22;1369;53.216;10.396;2023-04-03T15:28:51;8.50;86.70
2723;DHT22;1369;53.216;10.396;2023-04-03T15:31:16;8.50;81.50
2723;DHT22;1369;53.216;10.396;2023-04-03T15:33:42;8.30;82.90
2723;DHT22;1369;53.216;10.396;2023-04-03T15:36:08;8.30;81.30
2723;DHT22;1369;53.216;10.396;2023-04-03T15:38:34;8.40;83.50
2723;DHT22;1369;53.216;10.396;2023-04-03T15:41:00;8.50;85.10
2723;DHT22;1369;53.216;10.396;2023-04-03T15:43:25;8.70;86.00
2723;DHT22;1369;53.216;10.396;2023-04-03T15:45:51;8.50;81.20
2723;DHT22;1369;53.216;10.396;2023-04-03T15:48:17;8.50;83.10
2723;DHT22;1369;53.216;10.396;2023-04-03T15:50:43;8.50;83.90
2723;DHT22;1369;53.216;10.396;2023-04-03T15:53:09;8.40;82.10
2723;DHT22;1369;53.216;10.396;2023-04-03T15:55:37;8.30;81.30
2723;DHT22;1369;53.216;10.396;2023-04-03T15:58:04;8.30;82.40
2723;DHT22;1369;53.216;10.396;2023-04-03T16:00:30;8.30;81.00
2723;DHT22;1369;53.216;10.396;2023-04-03T16:03:00;8.40;83.60
2723;DHT22;1369;53.216;10.396;2023-04-03T16:05:27;8.30;83.00
2723;DHT22;1369;53.216;10.396;2023-04-03T16:07:53;8.20;80.50
2723;DHT22;1369;53.216;10.396;2023-04-03T16:10:20;8.10;80.60
2723;DHT22;1369;53.216;10.396;2023-04-03T16:12:46;8.10;82.10
2723;DHT22;1369;53.216;10.396;2023-04-03T16:15:11;8.00;80.60
2723;DHT22;1369;53.216;10.396;2023-04-03T16:17:37;7.90;82.60
2723;DHT22;1369;53.216;10.396;2023-04-03T16:20:05;7.90;82.00
2723;DHT22;1369;53.216;10.396;2023-04-03T16:22:31;7.70;81.60
2723;DHT22;1369;53.216;10.396;2023-04-03T16:24:58;7.40;81.50
2723;DHT22;1369;53.216;10.396;2023-04-03T16:27:23;7.30;84.40
2723;DHT22;1369;53.216;10.396;2023-04-03T16:29:53;7.40;86.00
2723;DHT22;1369;53.216;10.396;2023-04-03T16:32:19;7.50;86.20
2723;DHT22;1369;53.216;10.396;2023-04-03T16:34:45;7.40;85.60
2723;DHT22;1369;53.216;10.396;2023-04-03T16:37:10;7.30;87.00
2723;DHT22;1369;53.216;10.396;2023-04-03T16:39:36;7.40;87.30
2723;DHT22;1369;53.216;10.396;2023-04-03T16:42:01;7.30;88.00
2723;DHT22;1369;53.216;10.396;2023-04-03T16:44:27;7.30;87.60
2723;DHT22;1369;53.216;10.396;2023-04-03T16:46:53;7.10;87.80
2723;DHT22;1369;53.216;10.396;2023-04-03T16:49:19;7.00;87.80
2723;DHT22;1369;53.216;10.396;2023-04-03T16:51:44;7.00;88.00
2723;DHT22;1369;53.216;10.396;2023-04-03T16:54:11;7.10;89.40
2723;DHT22;1369;53.216;10.396;2023-04-03T16:56:38;7.00;89.40
2723;DHT22;1369;53.216;10.396;2023-04-03T16:59:04;7.00;89.80
2723;DHT22;1369;53.216;10.396;2023-04-03T17:01:30;7.00;90.30
2723;DHT22;1369;53.216;10.396;2023-04-03T17:03:55;6.80;88.50
2723;DHT22;1369;53.216;10.396;2023-04-03T17:06:22;6.70;89.80
2723;DHT22;1369;53.216;10.396;2023-04-03T17:08:49;6.70;90.30
2723;DHT22;1369;53.216;10.396;2023-04-03T17:11:15;6.50;89.80
2723;DHT22;1369;53.216;10.396;2023-04-03T17:13:41;6.50;90.30
2723;DHT22;1369;53.216;10.396;2023-04-03T17:16:10;6.50;90.10
2723;DHT22;1369;53.216;10.396;2023-04-03T17:18:36;6.30;89.60
2723;DHT22;1369;53.216;10.396;2023-04-03T17:21:02;6.40;91.30
2723;DHT22;1369;53.216;10.396;2023-04-03T17:23:29;6.30;90.80
2723;DHT22;1369;53.216;10.396;2023-04-03T17:25:55;6.20;90.40
2723;DHT22;1369;53.216;10.396;2023-04-03T17:28:21;6.20;90.30
2723;DHT22;1369;53.216;10.396;2023-04-03T17:30:52;6.10;90.40
2723;DHT22;1369;53.216;10.396;2023-04-03T17:33:18;6.10;90.60
2723;DHT22;1369;53.216;10.396;2023-04-03T17:35:43;6.00;91.20
2723;DHT22;1369;53.216;10.396;2023-04-03T17:38:08;6.00;91.60
2723;DHT22;1369;53.216;10.396;2023-04-03T17:40:34;6.00;91.10
2723;DHT22;1369;53.216;10.396;2023-04-03T17:42:59;5.80;91.00
2723;DHT22;1369;53.216;10.396;2023-04-03T17:45:25;5.80;90.80
2723;DHT22;1369;53.216;10.396;2023-04-03T17:47:51;5.60;91.40
2723;DHT22;1369;53.216;10.396;2023-04-03T17:50:18;5.50;90.90
2723;DHT22;1369;53.216;10.396;2023-04-03T17:52:44;5.50;92.00